Terminal Aerodrome Forecast
Issued by NWS

Home | Current Version | Previous Version | Text Only | Print | Product List | Glossary On
Versions: 1 2 3 4 5 6 7 8 9 10 11 12 13 14 15 16 17 18 19 20 21 22 23
000
FTUS43 KGRB 271000 AAA
TAFAUW
TAF AMD
KAUW 271013Z 2710/2806 32011KT P6SM SCT020 BKN050
      TEMPO 2710/2712 5SM -SHSN BKN020
     FM271500 32012G20KT P6SM FEW030 FEW050
     FM271800 32006KT P6SM SKC
     FM280300 VRB03KT P6SM SCT100=

USA.gov is the U.S. government's official web portal to all federal, state and local government web resources and services.